Time;durP1;ratioP1;P1;durP2;ratioP2;P2;SDS_P1;SDS_P2;PMS_P1;PMS_P2;Temp;Humidity;BMP_temperature;BMP_pressure;BME280_temperature;BME280_humidity;BME280_pressure;Samples;Min_cycle;Max_cycle;Signal;HPM_P1;HPM_P2
2021/01/31 00:00:52;;;;;;;55.38;21.77;;;-1.40;58.00;;;;;;5009270;28;20495;-63
2021/01/31 00:03:28;;;;;;;55.97;21.67;;;-1.40;58.10;;;;;;5005519;28;20033;-63
2021/01/31 00:05:56;;;;;;;45.35;20.08;;;-1.40;58.10;;;;;;5007883;28;20041;-63
2021/01/31 00:08:23;;;;;;;57.13;22.52;;;-1.40;58.10;;;;;;5014886;28;20410;-63
2021/01/31 00:10:50;;;;;;;52.08;21.15;;;-1.40;58.80;;;;;;5013612;28;20038;-63
2021/01/31 00:13:18;;;;;;;56.40;22.00;;;-1.40;58.30;;;;;;5012906;28;20704;-63
2021/01/31 00:15:46;;;;;;;55.33;21.65;;;-1.50;58.30;;;;;;5012630;28;20486;-63
2021/01/31 00:18:13;;;;;;;52.47;21.38;;;-1.40;58.40;;;;;;5012566;28;20053;-63
2021/01/31 00:20:43;;;;;;;56.42;21.50;;;-1.40;58.40;;;;;;5011561;28;20119;-63
2021/01/31 00:23:09;;;;;;;61.88;21.55;;;-1.40;58.40;;;;;;5004442;28;20601;-62
2021/01/31 00:25:35;;;;;;;54.58;22.27;;;-1.50;58.30;;;;;;5011155;28;20045;-62
2021/01/31 00:28:00;;;;;;;59.45;22.88;;;-1.50;58.30;;;;;;5013261;28;20268;-62
2021/01/31 00:30:35;;;;;;;58.55;22.35;;;-1.50;58.40;;;;;;5014144;28;20038;-63
2021/01/31 00:33:04;;;;;;;67.07;21.02;;;-1.50;58.40;;;;;;5009835;28;20132;-63
2021/01/31 00:35:33;;;;;;;64.90;20.95;;;-1.50;58.50;;;;;;5011891;28;20179;-63
2021/01/31 00:37:58;;;;;;;105.55;20.85;;;-1.50;58.50;;;;;;5011083;28;20050;-63
2021/01/31 00:40:24;;;;;;;128.32;20.98;;;-1.40;58.60;;;;;;5011036;28;20048;-63
2021/01/31 00:42:50;;;;;;;127.95;23.67;;;-1.40;58.60;;;;;;5009651;28;20052;-63
2021/01/31 00:45:19;;;;;;;95.40;21.92;;;-1.40;58.70;;;;;;5013765;28;20137;-63
2021/01/31 00:47:45;;;;;;;154.20;22.85;;;-1.40;58.70;;;;;;5013031;28;20042;-63
2021/01/31 00:50:26;;;;;;;137.90;21.00;;;-1.40;58.70;;;;;;5011052;28;20049;-63
2021/01/31 00:52:52;;;;;;;181.68;25.95;;;-1.30;58.80;;;;;;5005716;28;20177;-63
2021/01/31 00:55:18;;;;;;;211.07;25.98;;;-1.30;58.70;;;;;;5002183;28;20053;-63
2021/01/31 00:57:43;;;;;;;84.53;21.83;;;-1.30;58.70;;;;;;5010468;28;20049;-63
2021/01/31 01:00:11;;;;;;;133.30;23.65;;;-1.30;58.70;;;;;;5009268;28;20045;-63
2021/01/31 01:02:37;;;;;;;164.18;23.45;;;-1.30;58.70;;;;;;5010032;28;20042;-63
2021/01/31 01:05:03;;;;;;;59.60;21.88;;;-1.30;58.60;;;;;;5007479;28;20443;-63
2021/01/31 01:07:28;;;;;;;58.83;21.90;;;-1.20;58.60;;;;;;5011919;28;20044;-63
2021/01/31 01:09:54;;;;;;;57.47;21.58;;;-1.30;58.40;;;;;;5013705;28;20044;-63
2021/01/31 01:12:19;;;;;;;62.83;23.63;;;-1.30;58.30;;;;;;5006795;28;20073;-63
2021/01/31 01:14:45;;;;;;;60.42;23.85;;;-1.30;58.20;;;;;;5007134;28;20053;-63
2021/01/31 01:17:11;;;;;;;65.20;24.08;;;-1.40;58.00;;;;;;5011833;28;20078;-63
2021/01/31 01:19:36;;;;;;;66.25;24.48;;;-1.40;58.00;;;;;;5006418;28;20037;-63
2021/01/31 01:22:02;;;;;;;62.85;22.98;;;-1.50;57.90;;;;;;5013032;28;20037;-63
2021/01/31 01:24:28;;;;;;;72.13;25.70;;;-1.50;57.90;;;;;;4991099;28;20102;-63
2021/01/31 01:26:54;;;;;;;70.22;25.02;;;-1.60;57.90;;;;;;5013702;28;20124;-63
2021/01/31 01:29:19;;;;;;;67.15;26.13;;;-1.70;57.80;;;;;;5009093;28;20041;-63
2021/01/31 01:31:45;;;;;;;63.72;23.27;;;-1.70;57.80;;;;;;5017587;28;20116;-63
2021/01/31 01:34:10;;;;;;;68.38;24.67;;;-1.80;57.80;;;;;;5007148;28;20042;-63
2021/01/31 01:36:36;;;;;;;65.03;24.52;;;-1.80;57.80;;;;;;5006656;28;20150;-63
2021/01/31 01:39:03;;;;;;;58.05;23.20;;;-1.80;57.70;;;;;;5008046;28;20049;-63
2021/01/31 01:41:40;;;;;;;60.22;24.48;;;-1.90;57.60;;;;;;5005382;28;20049;-63
2021/01/31 01:44:07;;;;;;;62.10;23.98;;;-2.00;57.60;;;;;;5005918;28;20038;-63
2021/01/31 01:46:36;;;;;;;62.35;23.48;;;-2.00;57.60;;;;;;5002569;28;20040;-63
2021/01/31 01:49:26;;;;;;;56.47;22.95;;;-2.00;57.60;;;;;;5012126;28;20037;-63
2021/01/31 01:52:07;;;;;;;59.28;23.10;;;-2.10;57.50;;;;;;5009443;28;20051;-63
2021/01/31 01:54:36;;;;;;;59.47;22.63;;;-2.10;57.40;;;;;;5000428;28;20076;-63
2021/01/31 01:57:06;;;;;;;57.85;23.17;;;-2.20;57.50;;;;;;5009350;28;20711;-63
2021/01/31 01:59:34;;;;;;;54.50;21.48;;;-2.30;57.50;;;;;;5020809;28;20808;-63
2021/01/31 02:02:18;;;;;;;56.53;23.00;;;-2.30;57.60;;;;;;5009108;28;20077;-63
2021/01/31 02:04:45;;;;;;;59.17;22.67;;;-2.30;57.50;;;;;;5009080;28;20053;-63
2021/01/31 02:07:11;;;;;;;56.33;22.50;;;-2.30;57.50;;;;;;5004776;28;21398;-63
2021/01/31 02:09:38;;;;;;;53.88;22.13;;;-2.40;57.40;;;;;;5009766;28;20076;-63
2021/01/31 02:12:06;;;;;;;59.05;22.88;;;-2.40;57.40;;;;;;5007627;28;20045;-63
2021/01/31 02:14:35;;;;;;;58.72;22.25;;;-2.40;57.50;;;;;;5003959;28;20451;-63
2021/01/31 02:17:18;;;;;;;54.97;22.50;;;-2.50;57.40;;;;;;5003471;28;20087;-63
2021/01/31 02:19:56;;;;;;;52.75;21.50;;;;;;;;;;5006817;28;20046;-63
2021/01/31 02:22:25;;;;;;;56.88;22.17;;;;;;;;;;5005954;28;20045;-63
2021/01/31 02:25:06;;;;;;;48.58;20.98;;;;;;;;;;5006995;28;20042;-63
2021/01/31 02:27:41;;;;;;;56.55;22.25;;;;;;;;;;5006359;28;20034;-63
2021/01/31 02:30:25;;;;;;;56.25;22.15;;;;;;;;;;5007281;28;20068;-63
2021/01/31 02:33:17;;;;;;;53.08;21.48;;;;;;;;;;5004855;28;20712;-63
2021/01/31 02:35:45;;;;;;;57.40;21.48;;;;;;;;;;5006416;28;20375;-63
2021/01/31 02:38:23;;;;;;;48.50;20.50;;;;;;;;;;5007979;28;20050;-63
2021/01/31 02:40:55;;;;;;;50.00;20.08;;;;;;;;;;5007256;28;20044;-63
2021/01/31 02:43:40;;;;;;;47.65;19.85;;;;;;;;;;4998923;28;20034;-63
2021/01/31 02:46:25;;;;;;;48.80;18.92;;;;;;;;;;5001226;28;20041;-63
2021/01/31 02:48:53;;;;;;;50.88;21.20;;;;;;;;;;4999356;28;20049;-63
2021/01/31 02:51:27;;;;;;;47.25;19.67;;;;;;;;;;5006267;28;20106;-63
2021/01/31 02:54:07;;;;;;;55.33;21.88;;;;;;;;;;5007175;28;20140;-63
2021/01/31 02:56:49;;;;;;;51.95;20.48;;;;;;;;;;5009983;28;20045;-63
2021/01/31 02:59:19;;;;;;;53.38;20.35;;;;;;;;;;5000145;28;20045;-63
2021/01/31 03:01:47;;;;;;;42.40;18.23;;;;;;;;;;5009973;28;20211;-63
2021/01/31 03:04:17;;;;;;;48.72;18.88;;;;;;;;;;5006578;28;20514;-63
2021/01/31 03:06:49;;;;;;;47.15;18.88;;;;;;;;;;5007069;28;20037;-63
2021/01/31 03:09:35;;;;;;;44.33;19.02;;;;;;;;;;5007166;28;20565;-63
2021/01/31 03:12:04;;;;;;;49.95;19.00;;;;;;;;;;5008386;28;20045;-63
2021/01/31 03:14:38;;;;;;;47.42;18.95;;;;;;;;;;5001415;28;20154;-63
2021/01/31 03:17:08;;;;;;;42.78;17.42;;;;;;;;;;5005939;28;20050;-63
2021/01/31 03:19:34;;;;;;;42.90;18.33;;;;;;;;;;5003524;28;22073;-63
2021/01/31 03:22:02;;;;;;;46.15;17.48;;;;;;;;;;5001289;28;20038;-63
2021/01/31 03:24:42;;;;;;;42.20;17.20;;;;;;;;;;5004632;28;20390;-63
2021/01/31 03:27:22;;;;;;;40.85;17.38;;;;;;;;;;5008304;28;20037;-63
2021/01/31 03:29:48;;;;;;;46.97;18.80;;;;;;;;;;5002086;28;20094;-63
2021/01/31 03:32:23;;;;;;;39.75;17.73;;;;;;;;;;5004958;28;20045;-63
2021/01/31 03:35:02;;;;;;;44.08;16.83;;;;;;;;;;5000812;28;20120;-63
2021/01/31 03:37:34;;;;;;;39.88;17.50;;;;;;;;;;5001709;28;20049;-63
2021/01/31 03:40:01;;;;;;;33.03;15.00;;;;;;;;;;5006944;28;20156;-63
2021/01/31 03:42:29;;;;;;;52.42;20.00;;;;;;;;;;5006012;28;20049;-63
2021/01/31 03:44:57;;;;;;;46.78;18.17;;;;;;;;;;5005339;28;20153;-63
2021/01/31 03:47:32;;;;;;;38.25;16.50;;;;;;;;;;5005046;28;20269;-63
2021/01/31 03:49:59;;;;;;;31.27;14.80;;;;;;;;;;5001710;28;20049;-63
2021/01/31 03:52:25;;;;;;;38.83;14.65;;;;;;;;;;5004079;28;20427;-63
2021/01/31 03:54:54;;;;;;;30.77;14.20;;;;;;;;;;5009923;28;20041;-63
2021/01/31 03:57:23;;;;;;;36.13;14.43;;;;;;;;;;5007559;28;20041;-63
2021/01/31 03:59:51;;;;;;;38.67;17.38;;;;;;;;;;5000582;28;20046;-63
2021/01/31 04:02:18;;;;;;;40.22;16.30;;;;;;;;;;4998958;28;20037;-63
2021/01/31 04:04:48;;;;;;;42.10;17.60;;;;;;;;;;4996685;28;20100;-63
2021/01/31 04:07:18;;;;;;;54.50;19.83;;;;;;;;;;5002229;28;20180;-63
2021/01/31 04:09:44;;;;;;;57.85;20.50;;;;;;;;;;5002099;28;20034;-63
2021/01/31 04:12:12;;;;;;;46.83;18.30;;;;;;;;;;4999787;28;20042;-63
2021/01/31 04:14:41;;;;;;;38.65;17.13;;;;;;;;;;4999917;28;20593;-63
2021/01/31 04:17:07;;;;;;;48.63;18.88;;;;;;;;;;5001699;28;20056;-63
2021/01/31 04:19:33;;;;;;;47.25;19.23;;;;;;;;;;5000414;28;20038;-63
2021/01/31 04:21:59;;;;;;;45.92;17.77;;;;;;;;;;5006557;28;20419;-63
2021/01/31 04:24:25;;;;;;;46.60;18.85;;;;;;;;;;5006414;28;20121;-63
2021/01/31 04:26:51;;;;;;;51.67;19.02;;;;;;;;;;5006164;28;20038;-63
2021/01/31 04:29:17;;;;;;;52.15;20.38;;;;;;;;;;5008642;28;20033;-63
2021/01/31 04:31:43;;;;;;;56.75;19.88;;;;;;;;;;4999334;28;20042;-62
2021/01/31 04:34:11;;;;;;;48.50;19.35;;;;;;;;;;5008776;28;20468;-62
2021/01/31 04:36:37;;;;;;;46.22;18.45;;;;;;;;;;5010388;28;20084;-62
2021/01/31 04:39:04;;;;;;;46.38;17.90;;;;;;;;;;5009175;28;20112;-62
2021/01/31 04:41:35;;;;;;;47.67;19.35;;;;;;;;;;5009295;28;20479;-62
2021/01/31 04:44:02;;;;;;;54.05;18.75;;;;;;;;;;5012701;28;20080;-62
2021/01/31 04:46:35;;;;;;;51.55;19.00;;;;;;;;;;5009772;28;20120;-62
2021/01/31 04:49:07;;;;;;;48.92;18.20;;;;;;;;;;5012969;28;20048;-62
2021/01/31 04:51:39;;;;;;;52.20;18.40;;;;;;;;;;5019053;28;20503;-62
2021/01/31 04:54:23;;;;;;;53.85;18.05;;;;;;;;;;5010784;28;20037;-62
2021/01/31 04:57:00;;;;;;;50.15;18.77;;;;;;;;;;5002057;28;20835;-62
2021/01/31 04:59:28;;;;;;;51.17;18.63;;;;;;;;;;5010415;28;20682;-62
2021/01/31 05:01:57;;;;;;;51.15;17.40;;;;;;;;;;4998049;28;20276;-62
2021/01/31 05:04:23;;;;;;;44.50;16.73;;;;;;;;;;5003157;28;20037;-62
2021/01/31 05:06:53;;;;;;;51.90;18.33;;;;;;;;;;5006260;28;20555;-62
2021/01/31 05:09:20;;;;;;;43.97;17.08;;;;;;;;;;5005417;28;20042;-62
2021/01/31 05:12:05;;;;;;;42.40;16.48;;;;;;;;;;5008182;28;20046;-62
2021/01/31 05:14:34;;;;;;;52.53;17.27;;;;;;;;;;5009257;28;20103;-61
2021/01/31 05:17:00;;;;;;;46.75;17.35;;;;;;;;;;5007584;28;20045;-62
2021/01/31 05:19:30;;;;;;;42.13;15.32;;;;;;;;;;5002718;28;20045;-62
2021/01/31 05:21:57;;;;;;;41.75;17.25;;;;;;;;;;5008880;28;20041;-62
2021/01/31 05:24:23;;;;;;;40.20;15.48;;;;;;;;;;5000009;28;20380;-61
2021/01/31 05:26:52;;;;;;;43.22;16.73;;;;;;;;;;5005920;28;20029;-61
2021/01/31 05:29:28;;;;;;;39.95;15.98;;;;;;;;;;5004643;28;20037;-61
2021/01/31 05:32:02;;;;;;;42.40;16.38;;;;;;;;;;5011214;28;20038;-61
2021/01/31 05:34:34;;;;;;;36.80;13.98;;;;;;;;;;5008158;28;20042;-61
2021/01/31 05:37:02;;;;;;;44.00;15.18;;;;;;;;;;5001930;28;22040;-61
2021/01/31 05:39:35;;;;;;;36.85;15.00;;;;;;;;;;5006380;28;20096;-61
2021/01/31 05:42:05;;;;;;;41.55;15.85;;;;;;;;;;5002995;28;20069;-61
2021/01/31 05:44:31;;;;;;;34.22;14.02;;;;;;;;;;5001886;28;20041;-61
2021/01/31 05:46:59;;;;;;;34.38;14.32;;;;;;;;;;5008417;28;20045;-62
2021/01/31 05:49:42;;;;;;;39.40;16.10;;;;;;;;;;5009501;28;20491;-62
2021/01/31 05:52:31;;;;;;;42.75;16.65;;;;;;;;;;4999625;28;20044;-62
2021/01/31 05:54:58;;;;;;;35.35;14.00;;;;;;;;;;4990071;28;20034;-62
2021/01/31 05:57:34;;;;;;;41.28;15.93;;;;;;;;;;4997245;28;20049;-62
2021/01/31 06:00:02;;;;;;;36.28;14.65;;;;;;;;;;5009652;28;20045;-62
2021/01/31 06:02:29;;;;;;;36.42;14.77;;;;;;;;;;5003142;28;20042;-62
2021/01/31 06:05:14;;;;;;;41.35;14.93;;;;;;;;;;5004928;28;20037;-62
2021/01/31 06:07:40;;;;;;;36.50;14.65;;;;;;;;;;5005649;28;21542;-62
2021/01/31 06:10:11;;;;;;;36.17;13.65;;;;;;;;;;5000794;28;20037;-62
2021/01/31 06:12:38;;;;;;;35.72;14.15;;;;;;;;;;5001169;28;20457;-63
2021/01/31 06:15:08;;;;;;;32.42;14.60;;;;;;;;;;4994453;28;20106;-63
2021/01/31 06:17:35;;;;;;;38.30;13.75;;;;;;;;;;4997654;28;20072;-63
2021/01/31 06:20:05;;;;;;;41.50;15.40;;;;;;;;;;4998350;28;20551;-63
2021/01/31 06:22:41;;;;;;;40.53;15.95;;;;;;;;;;4996254;28;20042;-63
2021/01/31 06:25:10;;;;;;;38.20;15.40;;;;;;;;;;4998936;28;20102;-63
2021/01/31 06:27:36;;;;;;;40.90;16.38;;;;;;;;;;5000427;28;20581;-62
2021/01/31 06:30:20;;;;;;;35.85;14.10;;;;;;;;;;4998710;28;20092;-62
2021/01/31 06:32:47;;;;;;;42.67;15.70;;;;;;;;;;4998454;28;21401;-63
2021/01/31 06:35:14;;;;;;;36.35;14.63;;;;;;;;;;5002777;28;20522;-63
2021/01/31 06:37:47;;;;;;;34.97;14.40;;;;;;;;;;5002714;28;21476;-63
2021/01/31 06:40:14;;;;;;;38.85;15.10;;;;;;;;;;4992587;28;20152;-63
2021/01/31 06:42:46;;;;;;;40.17;15.80;;;;;;;;;;4991135;28;20048;-63
2021/01/31 06:45:11;;;;;;;35.05;15.40;;;;;;;;;;4998378;28;20152;-63
2021/01/31 06:48:07;;;;;;;40.47;16.15;;;;;;;;;;5000170;28;20045;-63
2021/01/31 06:50:39;;;;;;;42.00;15.05;;;;;;;;;;4978581;28;20061;-63
2021/01/31 06:53:24;;;;;;;36.85;14.85;;;;;;;;;;4998458;28;20033;-63
2021/01/31 06:56:16;;;;;;;36.38;14.32;;;;;;;;;;5000694;28;20107;-63
2021/01/31 06:58:48;;;;;;;36.30;14.45;;;;;;;;;;4972489;28;20571;-63
2021/01/31 07:01:14;;;;;;;33.53;13.50;;;;;;;;;;4999854;28;20050;-63
2021/01/31 07:03:50;;;;;;;38.15;15.43;;;;;;;;;;4996185;28;20045;-63
2021/01/31 07:06:25;;;;;;;36.20;15.30;;;;;;;;;;4989472;28;20108;-63
2021/01/31 07:08:57;;;;;;;35.67;15.73;;;;;;;;;;5003283;28;20037;-63
2021/01/31 07:11:26;;;;;;;38.67;15.15;;;;;;;;;;4998529;28;20038;-63
2021/01/31 07:13:53;;;;;;;34.83;14.68;;;;;;;;;;4999376;28;20042;-63
2021/01/31 07:16:19;;;;;;;43.22;16.40;;;;;;;;;;4999955;28;20815;-63
2021/01/31 07:19:04;;;;;;;33.92;15.48;;;;;;;;;;4998795;28;20055;-63
2021/01/31 07:21:48;;;;;;;36.95;15.90;;;;;;;;;;4998821;28;20041;-63
2021/01/31 07:24:18;;;;;;;43.00;14.90;;;;;;;;;;5000052;28;20045;-63
2021/01/31 07:26:44;;;;;;;35.45;14.45;;;;;;;;;;5007163;28;20041;-63
2021/01/31 07:29:14;;;;;;;40.45;16.90;;;;;;;;;;4999069;28;20045;-63
2021/01/31 07:31:51;;;;;;;40.17;16.30;;;;;;;;;;5002220;28;20049;-63
2021/01/31 07:34:23;;;;;;;40.92;16.60;;;;;;;;;;5002725;28;20053;-63
2021/01/31 07:37:01;;;;;;;43.47;16.45;;;;;;;;;;5004375;28;20045;-63
2021/01/31 07:39:38;;;;;;;46.88;17.05;;;;;;;;;;5006030;28;20037;-63
2021/01/31 07:42:05;;;;;;;36.70;15.45;;;;;;;;;;5008107;28;20037;-63
2021/01/31 07:44:33;;;;;;;38.47;16.38;;;;;;;;;;5003130;28;20041;-63
2021/01/31 07:47:00;;;;;;;41.38;16.48;;;;;;;;;;5011362;28;20034;-63
2021/01/31 07:49:26;;;;;;;41.05;17.13;;;;;;;;;;5006361;28;20041;-63
2021/01/31 07:51:58;;;;;;;38.08;16.30;;;;;;;;;;5010053;28;20056;-63
2021/01/31 07:54:33;;;;;;;42.00;17.33;;;;;;;;;;5010104;28;20042;-63
2021/01/31 07:57:17;;;;;;;37.28;16.58;;;;;;;;;;5005945;28;20044;-63
2021/01/31 07:59:43;;;;;;;39.80;17.65;;;;;;;;;;5009536;28;20772;-63
2021/01/31 08:02:10;;;;;;;47.15;19.42;;;;;;;;;;5010873;28;20120;-63
2021/01/31 08:04:36;;;;;;;41.88;17.27;;;;;;;;;;5006941;28;20442;-63
2021/01/31 08:07:04;;;;;;;40.47;17.27;;;;;;;;;;5009985;28;20096;-64
2021/01/31 08:09:30;;;;;;;38.97;17.02;;;;;;;;;;5009718;28;20030;-64
2021/01/31 08:12:04;;;;;;;42.78;18.20;;;;;;;;;;5009002;28;20151;-63
2021/01/31 08:14:49;;;;;;;44.05;17.23;;;;;;;;;;5012556;28;20399;-65
2021/01/31 08:17:33;;;;;;;38.53;16.50;;;;;;;;;;5014827;28;20557;-64
2021/01/31 08:20:21;;;;;;;42.10;17.15;;;;;;;;;;5009168;28;20926;-64
2021/01/31 08:22:47;;;;;;;41.13;17.60;;;;;;;;;;5010672;28;20076;-64
2021/01/31 08:25:13;;;;;;;40.58;17.23;;;;;;;;;;5010963;28;20045;-64
2021/01/31 08:27:42;;;;;;;42.67;16.45;;;;;;;;;;5009538;28;20407;-64
2021/01/31 08:30:36;;;;;;;42.10;16.38;;;;;;;;;;5013438;28;20041;-63
2021/01/31 08:33:17;;;;;;;44.78;18.20;;;;;;;;;;5012467;28;20034;-64
2021/01/31 08:35:43;;;;;;;41.90;17.27;;;;;;;;;;5009519;28;20053;-64
2021/01/31 08:38:13;;;;;;;47.60;18.80;;;;;;;;;;5012508;28;20045;-64
2021/01/31 08:40:40;;;;;;;46.35;17.88;;;;;;;;;;5013155;28;20042;-64
2021/01/31 08:43:09;;;;;;;50.15;21.55;;;;;;;;;;5011570;28;20042;-64
2021/01/31 08:45:43;;;;;;;43.00;18.17;;;;;;;;;;5011250;28;20044;-64
2021/01/31 08:48:09;;;;;;;45.55;19.27;;;;;;;;;;5012903;28;20051;-64
2021/01/31 08:50:35;;;;;;;44.67;19.80;;;;;;;;;;5014732;28;20045;-64
2021/01/31 08:53:05;;;;;;;46.42;18.45;;;;;;;;;;5014808;28;20046;-64
2021/01/31 08:55:31;;;;;;;46.17;20.08;;;;;;;;;;5016194;28;20048;-64
2021/01/31 08:57:58;;;;;;;45.83;20.92;;;;;;;;;;5014682;28;20439;-64
2021/01/31 09:00:26;;;;;;;52.85;20.05;;;;;;;;;;5013673;28;20041;-64
2021/01/31 09:02:52;;;;;;;54.63;20.50;;;;;;;;;;5005454;28;20061;-64
2021/01/31 09:05:19;;;;;;;52.67;23.48;;;;;;;;;;5005167;28;20132;-64
2021/01/31 09:07:46;;;;;;;55.15;23.13;;;;;;;;;;5005897;28;20037;-64
2021/01/31 09:10:22;;;;;;;52.85;23.77;;;;;;;;;;5007383;28;20455;-64
2021/01/31 09:12:48;;;;;;;57.65;24.27;;;;;;;;;;5001956;28;20077;-64
2021/01/31 09:15:23;;;;;;;66.70;25.50;;;;;;;;;;5003494;28;20048;-64
2021/01/31 09:17:49;;;;;;;56.22;25.48;;;;;;;;;;4999044;28;20052;-64
2021/01/31 09:20:18;;;;;;;61.35;26.02;;;;;;;;;;5002250;28;20045;-64
2021/01/31 09:22:45;;;;;;;55.08;25.77;;;;;;;;;;5004043;28;20044;-65
2021/01/31 09:25:13;;;;;;;65.18;27.33;;;;;;;;;;5001024;28;20126;-65
2021/01/31 09:27:42;;;;;;;65.45;27.60;;;;;;;;;;5000563;28;20390;-64
2021/01/31 09:30:10;;;;;;;63.88;26.52;;;;;;;;;;5001035;28;20452;-64
2021/01/31 09:32:41;;;;;;;62.58;27.85;;;;;;;;;;4992489;28;20355;-64
2021/01/31 09:35:10;;;;;;;62.55;27.48;;;;;;;;;;5019106;28;20060;-64
2021/01/31 09:37:36;;;;;;;70.15;27.52;;;;;;;;;;5006169;28;20126;-64
2021/01/31 09:40:04;;;;;;;66.15;28.13;;;;;;;;;;5001452;28;20037;-64
2021/01/31 09:42:32;;;;;;;62.60;27.30;;;;;;;;;;5005450;28;20074;-64
2021/01/31 09:45:02;;;;;;;62.88;29.15;;;;;;;;;;5004338;28;20071;-64
2021/01/31 09:47:28;;;;;;;62.08;28.15;;;;;;;;;;5006718;28;20037;-64
2021/01/31 09:49:59;;;;;;;70.60;29.13;;;;;;;;;;5007478;28;20033;-64
2021/01/31 09:52:25;;;;;;;68.25;29.00;;;;;;;;;;5004111;28;20041;-64
2021/01/31 09:54:51;;;;;;;67.70;30.35;;;;;;;;;;5007734;28;20041;-64
2021/01/31 09:57:19;;;;;;;66.15;30.23;;;;;;;;;;5006582;28;20049;-64
2021/01/31 09:59:45;;;;;;;73.38;29.83;;;;;;;;;;5000597;28;21086;-64
2021/01/31 10:02:14;;;;;;;70.40;29.65;;;;;;;;;;5007351;28;20029;-64
2021/01/31 10:04:41;;;;;;;62.25;28.45;;;;;;;;;;4998660;28;20105;-65
2021/01/31 10:07:09;;;;;;;61.35;28.65;;;;;;;;;;4999980;28;20246;-65
2021/01/31 10:09:40;;;;;;;64.85;30.02;;;-2.50;57.50;;;;;;4997362;28;20229;-65
2021/01/31 10:12:37;;;;;;;57.25;26.30;;;3.50;62.40;;;;;;4992288;28;20072;-65
2021/01/31 10:15:07;;;;;;;57.20;27.02;;;3.90;61.20;;;;;;4994583;28;20643;-65
2021/01/31 10:17:47;;;;;;;61.05;29.15;;;4.30;61.20;;;;;;4993653;28;20160;-65
2021/01/31 10:20:25;;;;;;;63.15;29.70;;;4.70;61.20;;;;;;4989178;28;20048;-65
2021/01/31 10:22:52;;;;;;;70.30;33.42;;;5.20;61.60;;;;;;4998786;28;20129;-65
2021/01/31 10:25:21;;;;;;;61.20;30.00;;;5.60;61.50;;;;;;5004104;28;20164;-65
2021/01/31 10:27:48;;;;;;;54.92;26.77;;;6.10;61.40;;;;;;5001049;28;20029;-66
2021/01/31 10:30:40;;;;;;;56.28;28.48;;;6.50;61.00;;;;;;5003820;28;20030;-65
2021/01/31 10:33:08;;;;;;;44.92;24.25;;;7.00;61.30;;;;;;5004101;28;20041;-63
2021/01/31 10:35:38;;;;;;;40.75;22.55;;;7.80;61.00;;;;;;5006678;28;20037;-63
2021/01/31 10:38:27;;;;;;;38.85;20.73;;;8.30;59.30;;;;;;5005477;28;20049;-63
2021/01/31 10:40:53;;;;;;;39.33;21.13;;;8.50;58.00;;;;;;4998299;28;20037;-63
2021/01/31 10:43:20;;;;;;;38.45;20.10;;;8.70;58.70;;;;;;4994366;28;20804;-63
2021/01/31 10:45:48;;;;;;;37.58;20.45;;;9.10;58.40;;;;;;5003187;28;20049;-63
2021/01/31 10:48:14;;;;;;;30.58;18.40;;;9.60;57.80;;;;;;5000595;28;20040;-63
2021/01/31 10:50:39;;;;;;;28.75;16.58;;;10.00;56.40;;;;;;5004044;28;20038;-65
2021/01/31 10:53:05;;;;;;;30.60;17.38;;;10.20;55.70;;;;;;5006345;28;20064;-65
2021/01/31 10:55:30;;;;;;;29.48;17.95;;;10.70;57.20;;;;;;5001911;28;20037;-62
2021/01/31 10:57:56;;;;;;;27.38;16.63;;;11.90;57.60;;;;;;5004811;28;20095;-62
2021/01/31 11:00:21;;;;;;;24.55;16.08;;;13.10;55.30;;;;;;4991894;22;20528;-62
2021/01/31 11:02:50;;;;;;;24.77;15.40;;;14.30;52.80;;;;;;4992197;28;20037;-63
2021/01/31 11:05:16;;;;;;;25.45;14.98;;;15.20;49.90;;;;;;5010403;28;20034;-63
2021/01/31 11:07:42;;;;;;;21.40;14.80;;;16.10;47.60;;;;;;4994823;28;20943;-63
2021/01/31 11:10:09;;;;;;;21.40;13.32;;;16.90;45.20;;;;;;4995508;28;20492;-63
2021/01/31 11:12:38;;;;;;;21.70;14.25;;;17.70;42.10;;;;;;4992663;28;20038;-63
2021/01/31 11:15:06;;;;;;;20.73;13.48;;;18.50;39.80;;;;;;4993573;28;20100;-63
2021/01/31 11:17:32;;;;;;;19.05;13.10;;;19.10;37.50;;;;;;4993200;28;20465;-63
2021/01/31 11:19:57;;;;;;;17.75;12.93;;;19.80;36.00;;;;;;4995185;28;20034;-63
2021/01/31 11:22:23;;;;;;;17.45;12.13;;;20.30;34.40;;;;;;4989861;28;20062;-63
2021/01/31 11:24:49;;;;;;;18.20;12.10;;;20.70;33.10;;;;;;4995206;28;20064;-63
2021/01/31 11:27:14;;;;;;;17.15;12.27;;;21.00;31.80;;;;;;5000639;28;20049;-63
2021/01/31 11:29:40;;;;;;;17.65;12.27;;;21.30;30.60;;;;;;4994887;28;20525;-63
2021/01/31 11:32:06;;;;;;;20.33;13.52;;;21.50;29.90;;;;;;4997147;28;20387;-63
2021/01/31 11:34:33;;;;;;;18.17;12.23;;;21.60;29.30;;;;;;4986548;28;20034;-63
2021/01/31 11:36:58;;;;;;;20.33;13.57;;;21.50;28.90;;;;;;4993770;28;20116;-63
2021/01/31 11:39:24;;;;;;;20.17;12.82;;;21.50;28.70;;;;;;5000397;28;20031;-63
2021/01/31 11:41:50;;;;;;;18.60;12.57;;;21.50;28.70;;;;;;4996094;28;20129;-63
2021/01/31 11:44:15;;;;;;;16.73;10.93;;;21.60;28.50;;;;;;4995370;28;20038;-63
2021/01/31 11:46:41;;;;;;;16.98;10.93;;;21.70;27.90;;;;;;5006612;28;20045;-63
2021/01/31 11:49:07;;;;;;;14.35;10.52;;;21.80;27.50;;;;;;5000975;28;20034;-63
2021/01/31 11:51:33;;;;;;;14.65;10.45;;;21.80;27.50;;;;;;4994887;28;20080;-64
2021/01/31 11:53:59;;;;;;;15.32;11.23;;;21.90;27.00;;;;;;4995658;28;20427;-64
2021/01/31 11:56:25;;;;;;;14.52;10.25;;;22.00;26.80;;;;;;4997479;28;20042;-63
2021/01/31 11:58:50;;;;;;;14.52;10.52;;;22.00;26.70;;;;;;4998353;28;20056;-63
2021/01/31 12:01:16;;;;;;;16.25;10.95;;;22.00;26.60;;;;;;4990357;28;20728;-63
2021/01/31 12:03:43;;;;;;;15.90;11.10;;;21.90;26.50;;;;;;4987702;28;20720;-63
2021/01/31 12:06:09;;;;;;;15.75;10.63;;;21.80;26.40;;;;;;4986712;28;20046;-63
2021/01/31 12:08:35;;;;;;;14.90;11.15;;;21.40;26.20;;;;;;4987740;28;20052;-63
2021/01/31 12:11:01;;;;;;;16.55;11.90;;;20.80;26.70;;;;;;4992171;28;20045;-63
2021/01/31 12:13:26;;;;;;;14.32;10.48;;;20.10;27.20;;;;;;4997375;28;20041;-63
2021/01/31 12:15:52;;;;;;;16.80;11.63;;;19.40;28.00;;;;;;4997290;28;20412;-63
2021/01/31 12:18:18;;;;;;;15.05;10.57;;;18.90;28.80;;;;;;4997194;28;20045;-63
2021/01/31 12:20:44;;;;;;;16.60;11.43;;;18.60;29.20;;;;;;4997082;28;20134;-63
2021/01/31 12:23:09;;;;;;;15.57;10.85;;;18.50;29.70;;;;;;4997701;28;20038;-63
2021/01/31 12:25:35;;;;;;;18.17;12.07;;;18.50;29.50;;;;;;4999257;28;20044;-63
2021/01/31 12:28:01;;;;;;;18.48;12.27;;;;;;;;;;4998934;28;22202;-63
2021/01/31 12:30:28;;;;;;;19.50;13.13;;;;;;;;;;4992542;28;20038;-63
2021/01/31 12:32:55;;;;;;;17.98;12.02;;;18.20;29.60;;;;;;4992938;28;20223;-62
2021/01/31 12:35:22;;;;;;;21.02;12.35;;;;;;;;;;4980730;28;20081;-63
2021/01/31 12:37:48;;;;;;;19.30;12.40;;;;;;;;;;4996725;28;20053;-62
2021/01/31 12:40:15;;;;;;;18.83;11.73;;;;;;;;;;4990269;28;20095;-62
2021/01/31 12:42:43;;;;;;;18.45;11.60;;;;;;;;;;4992444;28;20049;-62
2021/01/31 12:45:09;;;;;;;20.00;12.15;;;;;;;;;;4994852;28;20030;-62
2021/01/31 12:47:35;;;;;;;18.70;11.80;;;;;;;;;;4999540;28;20514;-62
2021/01/31 12:50:01;;;;;;;18.27;11.68;;;;;;;;;;4999532;28;20034;-61
2021/01/31 12:52:26;;;;;;;17.38;11.30;;;;;;;;;;4995504;28;20030;-62
2021/01/31 12:54:52;;;;;;;17.33;11.02;;;;;;;;;;4992528;28;20050;-62
2021/01/31 12:57:18;;;;;;;17.73;11.35;;;;;;;;;;4993751;28;20034;-62
2021/01/31 12:59:44;;;;;;;29.20;17.77;;;;;;;;;;4997581;28;20400;-61
2021/01/31 13:02:13;;;;;;;33.40;19.38;;;;;;;;;;5001547;28;20446;-62
2021/01/31 13:04:41;;;;;;;34.25;21.00;;;;;;;;;;4994922;28;20045;-62
2021/01/31 13:07:07;;;;;;;37.20;20.92;;;;;;;;;;4996285;28;20068;-62
2021/01/31 13:09:33;;;;;;;39.50;22.52;;;;;;;;;;4999334;28;20124;-62
2021/01/31 13:11:59;;;;;;;43.78;22.05;;;;;;;;;;4998837;28;20069;-62
2021/01/31 13:14:25;;;;;;;37.53;22.60;;;;;;;;;;4996987;28;20132;-61
2021/01/31 13:16:51;;;;;;;37.90;21.63;;;;;;;;;;4999166;28;20041;-62
2021/01/31 13:19:17;;;;;;;34.30;21.00;;;;;;;;;;4997999;28;20474;-61
2021/01/31 13:21:43;;;;;;;37.20;22.30;;;;;;;;;;4998649;28;20041;-62
2021/01/31 13:24:09;;;;;;;37.72;22.13;;;;;;;;;;4998983;28;20042;-61
2021/01/31 13:26:35;;;;;;;37.80;21.27;;;;;;;;;;5001355;28;20088;-61
2021/01/31 13:29:01;;;;;;;44.65;24.52;;;;;;;;;;4996979;28;20096;-61
2021/01/31 13:31:27;;;;;;;42.20;24.90;;;;;;;;;;4998552;28;20038;-61
2021/01/31 13:33:54;;;;;;;40.92;22.95;;;;;;;;;;5010494;28;20053;-61
2021/01/31 13:36:20;;;;;;;35.97;20.90;;;;;;;;;;4994412;28;20052;-61
2021/01/31 13:38:46;;;;;;;38.38;22.90;;;;;;;;;;4993064;28;20049;-61
2021/01/31 13:41:12;;;;;;;40.97;23.77;;;;;;;;;;4997286;28;20045;-62
2021/01/31 13:43:38;;;;;;;34.88;21.85;;;;;;;;;;4988569;28;20062;-61
2021/01/31 13:46:04;;;;;;;37.15;22.50;;;;;;;;;;4984645;28;20076;-61
2021/01/31 13:48:29;;;;;;;37.28;22.30;;;;;;;;;;4993803;28;20535;-61
2021/01/31 13:50:55;;;;;;;38.15;23.17;;;;;;;;;;4996938;28;20062;-61